Time;durP1;ratioP1;P1;durP2;ratioP2;P2;SDS_P1;SDS_P2;PMS_P1;PMS_P2;Temp;Humidity;BMP_temperature;BMP_pressure;BME280_temperature;BME280_humidity;BME280_pressure;Samples;Min_cycle;Max_cycle;Signal;HPM_P1;HPM_P2
2023/05/28 05:10:43;;;;;;;;;;;;;;;;;;5067980;28;20528;-39
2023/05/28 05:13:09;;;;;;;;;;;;;;;;;;5067768;28;19916;-39
2023/05/28 05:15:36;;;;;;;;;;;;;;;;;;5068282;28;19913;-39
2023/05/28 05:18:02;;;;;;;;;;;;;;;;;;5066193;28;20445;-39
2023/05/28 05:20:29;;;;;;;;;;;;;;;;;;5048222;28;19920;-39
2023/05/28 05:22:56;;;;;;;;;;;;;;;;;;5055226;28;19916;-39
2023/05/28 05:25:22;;;;;;;;;;;;;;;;;;5068184;28;19919;-39
2023/05/28 05:27:48;;;;;;;;;;;;;;;;;;5060902;28;19909;-39
2023/05/28 05:30:14;;;;;;;;;;;;;;;;;;5065491;28;20139;-39
2023/05/28 05:32:41;;;;;;;;;;;;;;;;;;5067466;28;20387;-39
2023/05/28 05:35:07;;;;;;;;;;;;;;;;;;5068019;28;19913;-39
2023/05/28 05:37:33;;;;;;;;;;;;;;;;;;5067625;28;20413;-39
2023/05/28 05:39:59;;;;;;;;;;;;;;;;;;5070125;28;19991;-39
2023/05/28 05:42:25;;;;;;;;;;;;;;;;;;5089532;28;19923;-39
2023/05/28 05:44:51;;;;;;;;;;;;;;;;;;5074910;28;20286;-39
2023/05/28 05:47:17;;;;;;;;;;;;;;;;;;5069362;28;19912;-39
2023/05/28 05:49:43;;;;;;;;;;;;;;;;;;5070774;28;19951;-39
2023/05/28 05:52:09;;;;;;;;;;;;;;;;;;5071785;28;19935;-39
2023/05/28 05:54:34;;;;;;;;;;;;;;;;;;5061610;28;19909;-39
2023/05/28 05:57:02;;;;;;;;;;;;;;;;;;5067628;28;19916;-39
2023/05/28 05:59:28;;;;;;;;;;;;;;;;;;5067137;28;20038;-39
2023/05/28 06:01:54;;;;;;;;;;;;;;;;;;5070671;28;19971;-39
2023/05/28 06:04:20;;;;;;;;;;;;;;;;;;5064891;28;19913;-39
2023/05/28 06:06:46;;;;;;;;;;;;;;;;;;5048721;28;19917;-39
2023/05/28 06:09:12;;;;;;;;;;;;;;;;;;5031028;28;19909;-39
2023/05/28 06:11:40;;;;;;;;;;;;;;;;;;5048792;28;19929;-39
2023/05/28 06:14:06;;;;;;;;;;;;;;;;;;5048722;28;19944;-39
2023/05/28 06:16:32;;;;;;;;;;;;;;;;;;5048241;28;20056;-39
2023/05/28 06:18:58;;;;;;;;;;;;;;;;;;5048904;28;20007;-39
2023/05/28 06:21:24;;;;;;;;;;;;;;;;;;5068740;28;19935;-39
2023/05/28 06:23:50;;;;;;;;;;;;;;;;;;5064704;28;19916;-39
2023/05/28 06:26:16;;;;;;;;;;;;;;;;;;5048881;28;19912;-39
2023/05/28 06:28:42;;;;;;;;;;;;;;;;;;5063235;28;19952;-39
2023/05/28 06:31:08;;;;;;;;;;;;;;;;;;5051902;28;19973;-39
2023/05/28 06:33:35;;;;;;;;;;;;;;;;;;5048906;28;19948;-39
2023/05/28 06:36:01;;;;;;;;;;;;;;;;;;5061368;28;19917;-39
2023/05/28 06:38:27;;;;;;;;;;;;;;;;;;5068672;28;19912;-39
2023/05/28 06:40:53;;;;;;;;;;;;;;;;;;5068937;28;19915;-39
2023/05/28 06:43:19;;;;;;;;;;;;;;;;;;5068637;28;19912;-39
2023/05/28 06:45:45;;;;;;;;;;;;;;;;;;5067617;28;19935;-39
2023/05/28 06:48:11;;;;;;;;;;;;;;;;;;5072173;28;19948;-39
2023/05/28 06:50:37;;;;;;;;;;;;;;;;;;5063783;28;20433;-39
2023/05/28 06:53:03;;;;;;;;;;;;;;;;;;5060002;28;20283;-39
2023/05/28 06:55:29;;;;;;;;;;;;;;;;;;5052683;28;19917;-39
2023/05/28 06:57:56;;;;;;;;;;;;;;;;;;5067857;28;19959;-39
2023/05/28 07:00:23;;;;;;;;;;;;;;;;;;5062034;28;19940;-39
2023/05/28 07:02:49;;;;;;;;;;;;;;;;;;5063363;28;19920;-39
2023/05/28 07:05:15;;;;;;;;;;;;;;;;;;5063628;28;19916;-39
2023/05/28 07:07:41;;;;;;;;;;;;;;;;;;5047222;28;19935;-39
2023/05/28 07:10:08;;;;;;;;;;;;;;;;;;5062055;28;19959;-39
2023/05/28 07:12:34;;;;;;;;;;;;;;;;;;5067641;28;20303;-39
2023/05/28 07:15:00;;;;;;;;;;;;;;;;;;5059336;28;19916;-39
2023/05/28 07:17:26;;;;;;;;;;;;;;;;;;5067151;28;19912;-39
2023/05/28 07:19:52;;;;;;;;;;;;;;;;;;5047885;28;19935;-40
2023/05/28 07:22:18;;;;;;;;;;;;;;;;;;5069033;28;19998;-40
2023/05/28 07:24:44;;;;;;;;;;;;;;;;;;5058115;28;20011;-40
2023/05/28 07:27:10;;;;;;;;;;;;;;;;;;5047464;28;19934;-40
2023/05/28 07:29:36;;;;;;;;;;;;;;;;;;5051050;28;19962;-40
2023/05/28 07:32:02;;;;;;;;;;;;;;;;;;5051207;28;19917;-40
2023/05/28 07:34:28;;;;;;;;;;;;;;;;;;5051102;28;19913;-40
2023/05/28 07:36:54;;;;;;;;;;;;;;;;;;5050800;28;19912;-40
2023/05/28 07:39:20;;;;;;;;;;;;;;;;;;5050828;28;19912;-40
2023/05/28 07:41:47;;;;;;;;;;;;;;;;;;5050881;28;20395;-40
2023/05/28 07:44:15;;;;;;;;;;;;;;;;;;5050648;28;19909;-40
2023/05/28 07:46:41;;;;;;;;;;;;;;;;;;5077369;28;19916;-40
2023/05/28 07:49:07;;;;;;;;;;;;;;;;;;5070236;28;19908;-40
2023/05/28 07:51:33;;;;;;;;;;;;;;;;;;5067227;28;20312;-40
2023/05/28 07:53:59;;;;;;;;;;;;;;;;;;5070482;28;19913;-40
2023/05/28 07:56:26;;;;;;;;;;;;;;;;;;5070510;28;19912;-40
2023/05/28 07:58:51;;;;;;;;;;;;;;;;;;5061419;28;19912;-40
2023/05/28 08:01:17;;;;;;;;;;;;;;;;;;5069549;28;19919;-40
2023/05/28 08:03:43;;;;;;;;;;;;;;;;;;5070247;28;19975;-39
2023/05/28 08:06:09;;;;;;;;;;;;;;;;;;5071314;28;19938;-40
2023/05/28 08:08:35;;;;;;;;;;;;;;;;;;5050980;28;19915;-40
2023/05/28 08:11:01;;;;;;;;;;;;;;;;;;5064970;28;19920;-40
2023/05/28 08:13:27;;;;;;;;;;;;;;;;;;5068406;28;19916;-40
2023/05/28 08:15:53;;;;;;;;;;;;;;;;;;5068374;28;19944;-40
2023/05/28 08:18:19;;;;;;;;;;;;;;;;;;5066177;28;19916;-40
2023/05/28 08:20:45;;;;;;;;;;;;;;;;;;5062111;28;20430;-39
2023/05/28 08:23:11;;;;;;;;;;;;;;;;;;5067250;28;19913;-40
2023/05/28 08:25:37;;;;;;;;;;;;;;;;;;5067927;28;19913;-40
2023/05/28 08:28:04;;;;;;;;;;;;;;;;;;5068437;28;19912;-39
2023/05/28 08:30:31;;;;;;;;;;;;;;;;;;5068334;28;19924;-40
2023/05/28 08:32:57;;;;;;;;;;;;;;;;;;5067658;28;19948;-40
2023/05/28 08:35:25;;;;;;;;;;;;;;;;;;5068334;28;20010;-39
2023/05/28 08:37:51;;;;;;;;;;;;;;;;;;5068284;28;20000;-40
2023/05/28 08:40:17;;;;;;;;;;;;;;;;;;5066277;28;19913;-40
2023/05/28 08:42:43;;;;;;;;;;;;;;;;;;5066515;28;19912;-39
2023/05/28 08:45:09;;;;;;;;;;;;;;;;;;5067296;28;20086;-39
2023/05/28 08:47:35;;;;;;;;;;;;;;;;;;5067392;28;19923;-40
2023/05/28 08:50:01;;;;;;;;;;;;;;;;;;5063079;28;19912;-39
2023/05/28 08:52:27;;;;;;;;;;;;;;;;;;5067931;28;19920;-39
2023/05/28 08:54:53;;;;;;;;;;;;;;;;;;5067985;28;19919;-39
2023/05/28 08:57:21;;;;;;;;;;;;;;;;;;5045811;28;21440;-40
2023/05/28 08:59:47;;;;;;;;;;;;;;;;;;5060016;28;19916;-40
2023/05/28 09:02:13;;;;;;;;;;;;;;;;;;5059266;28;19913;-40
2023/05/28 09:04:40;;;;;;;;;;;;;;;;;;5055003;28;19935;-39
2023/05/28 09:07:05;;;;;;;;;;;;;;;;;;5057768;28;19913;-40
2023/05/28 09:09:32;;;;;;;;;;;;;;;;;;5055074;28;20382;-40
2023/05/28 09:11:58;;;;;;;;;;;;;;;;;;5049402;28;19967;-39
2023/05/28 09:14:25;;;;;;;;;;;;;;;;;;5067948;28;20003;-39
2023/05/28 09:16:52;;;;;;;;;;;;;;;;;;5048245;28;20485;-39
2023/05/28 09:19:18;;;;;;;;;;;;;;;;;;5055032;28;19912;-40
2023/05/28 09:21:44;;;;;;;;;;;;;;;;;;5048149;28;19915;-40
2023/05/28 09:24:10;;;;;;;;;;;;;;;;;;5064593;28;19912;-40
2023/05/28 09:26:36;;;;;;;;;;;;;;;;;;5068298;28;19912;-40
2023/05/28 09:29:02;;;;;;;;;;;;;;;;;;5053218;28;19912;-40
2023/05/28 09:31:29;;;;;;;;;;;;;;;;;;5054896;28;19919;-40
2023/05/28 09:33:56;;;;;;;;;;;;;;;;;;5066484;28;19969;-40
2023/05/28 09:36:22;;;;;;;;;;;;;;;;;;5066879;28;19919;-40
2023/05/28 09:38:48;;;;;;;;;;;;;;;;;;5066609;28;19913;-40
2023/05/28 09:41:15;;;;;;;;;;;;;;;;;;5053599;28;20003;-40
2023/05/28 09:43:41;;;;;;;;;;;;;;;;;;5059780;28;19920;-40
2023/05/28 09:46:07;;;;;;;;;;;;;;;;;;5058407;28;19928;-40
2023/05/28 09:48:33;;;;;;;;;;;;;;;;;;5059852;28;19952;-40
2023/05/28 09:50:59;;;;;;;;;;;;;;;;;;5063575;28;19967;-40
2023/05/28 09:53:25;;;;;;;;;;;;;;;;;;5053509;28;19920;-39
2023/05/28 09:55:51;;;;;;;;;;;;;;;;;;5063177;28;19916;-40
2023/05/28 09:58:17;;;;;;;;;;;;;;;;;;5066363;28;20479;-40
2023/05/28 10:00:44;;;;;;;;;;;;;;;;;;5059002;28;19987;-39
2023/05/28 10:03:11;;;;;;;;;;;;;;;;;;5064882;28;19916;-39
2023/05/28 10:05:37;;;;;;;;;;;;;;;;;;5066469;28;19924;-39
2023/05/28 10:08:03;;;;;;;;;;;;;;;;;;5058308;28;19912;-39
2023/05/28 10:10:28;;;;;;;;;;;;;;;;;;5055796;28;19916;-39
2023/05/28 10:12:54;;;;;;;;;;;;;;;;;;5059619;28;19972;-39
2023/05/28 10:15:20;;;;;;;;;;;;;;;;;;5058329;28;19974;-40
2023/05/28 10:17:46;;;;;;;;;;;;;;;;;;5056830;28;19916;-39
2023/05/28 10:20:14;;;;;;;;;;;;;;;;;;5065014;28;19913;-39
2023/05/28 10:22:40;;;;;;;;;;;;;;;;;;5066482;28;19917;-39
2023/05/28 10:25:07;;;;;;;;;;;;;;;;;;5062942;28;19917;-39
2023/05/28 10:27:33;;;;;;;;;;;;;;;;;;5072816;28;19913;-39
2023/05/28 10:29:59;;;;;;;;;;;;;;;;;;5062984;28;19920;-39
2023/05/28 10:32:25;;;;;;;;;;;;;;;;;;5061941;28;19921;-39
2023/05/28 10:34:51;;;;;;;;;;;;;;;;;;5044803;28;19988;-39
2023/05/28 10:37:17;;;;;;;;;;;;;;;;;;5064811;28;19935;-39
2023/05/28 10:39:43;;;;;;;;;;;;;;;;;;5061654;28;19917;-39
2023/05/28 10:42:09;;;;;;;;;;;;;;;;;;5065323;28;19940;-39
2023/05/28 10:44:35;;;;;;;;;;;;;;;;;;5057288;28;20288;-39
2023/05/28 10:47:01;;;;;;;;;;;;;;;;;;5061186;28;20012;-39
2023/05/28 10:49:28;;;;;;;;;;;;;;;;;;5064765;28;20002;-40
2023/05/28 10:51:54;;;;;;;;;;;;;;;;;;5054433;28;19960;-40
2023/05/28 10:54:20;;;;;;;;;;;;;;;;;;5061018;28;19917;-40
2023/05/28 10:56:46;;;;;;;;;;;;;;;;;;5063761;28;19924;-39
2023/05/28 10:59:12;;;;;;;;;;;;;;;;;;5052474;28;19917;-39
2023/05/28 11:01:38;;;;;;;;;;;;;;;;;;5055162;28;19920;-39
2023/05/28 11:04:04;;;;;;;;;;;;;;;;;;5059104;28;19936;-39
2023/05/28 11:06:30;;;;;;;;;;;;;;;;;;5055816;28;20003;-40
2023/05/28 11:08:56;;;;;;;;;;;;;;;;;;5068395;28;19916;-40
2023/05/28 11:11:22;;;;;;;;;;;;;;;;;;5069330;28;20398;-40
2023/05/28 11:13:48;;;;;;;;;;;;;;;;;;5067576;28;19912;-40
2023/05/28 11:16:14;;;;;;;;;;;;;;;;;;5056201;28;20011;-40
2023/05/28 11:18:40;;;;;;;;;;;;;;;;;;5063499;28;19920;-39
2023/05/28 11:21:07;;;;;;;;;;;;;;;;;;5062038;28;19917;-40
2023/05/28 11:23:33;;;;;;;;;;;;;;;;;;5064675;28;19912;-39
2023/05/28 11:25:59;;;;;;;;;;;;;;;;;;5064738;28;19920;-47
2023/05/28 11:28:25;;;;;;;;;;;;;;;;;;5048875;28;19939;-47
2023/05/28 11:30:54;;;;;;;;;;;;;;;;;;5053721;28;20302;-47
2023/05/28 11:33:20;;;;;;;;;;;;;;;;;;5063142;28;19960;-46
2023/05/28 11:35:46;;;;;;;;;;;;;;;;;;5064364;28;19916;-48
2023/05/28 11:38:12;;;;;;;;;;;;;;;;;;5064176;28;19940;-46
2023/05/28 11:40:38;;;;;;;;;;;;;;;;;;5068617;28;20009;-48
2023/05/28 11:43:04;;;;;;;;;;;;;;;;;;5062561;28;19928;-47
2023/05/28 11:45:30;;;;;;;;;;;;;;;;;;5056519;28;19921;-46
2023/05/28 11:47:56;;;;;;;;;;;;;;;;;;5055655;28;20288;-47
2023/05/28 11:50:22;;;;;;;;;;;;;;;;;;5050183;28;19917;-47
2023/05/28 11:52:48;;;;;;;;;;;;;;;;;;5061509;28;19917;-47
2023/05/28 11:55:14;;;;;;;;;;;;;;;;;;5069037;28;19912;-48
2023/05/28 11:57:43;;;;;;;;;;;;;;;;;;5061547;28;20127;-47
2023/05/28 12:00:15;;;;;;;;;;;;;;;;;;5053756;28;19999;-47
2023/05/28 12:02:41;;;;;;;;;;;;;;;;;;5066795;28;19959;-48
2023/05/28 12:05:07;;;;;;;;;;;;;;;;;;5061165;28;19947;-49
2023/05/28 12:07:33;;;;;;;;;;;;;;;;;;5051508;28;19931;-50
2023/05/28 12:09:59;;;;;;;;;;;;;;;;;;5070598;28;19916;-50
2023/05/28 12:12:25;;;;;;;;;;;;;;;;;;5063557;28;19985;-49
2023/05/28 12:14:51;;;;;;;;;;;;;;;;;;5066427;28;19920;-49
2023/05/28 12:17:17;;;;;;;;;;;;;;;;;;5056045;28;19956;-49
2023/05/28 12:19:43;;;;;;;;;;;;;;;;;;5064061;28;19909;-47
2023/05/28 12:22:09;;;;;;;;;;;;;;;;;;5063216;28;20375;-50
2023/05/28 12:24:35;;;;;;;;;;;;;;;;;;5067374;28;19912;-47
2023/05/28 12:27:01;;;;;;;;;;;;;;;;;;5064049;28;19916;-47
2023/05/28 12:29:27;;;;;;;;;;;;;;;;;;5062651;28;19959;-48
2023/05/28 12:31:53;;;;;;;;;;;;;;;;;;5059093;28;19921;-48
2023/05/28 12:34:19;;;;;;;;;;;;;;;;;;5061673;28;19952;-47
2023/05/28 12:36:45;;;;;;;;;;;;;;;;;;5063761;28;19919;-48
2023/05/28 12:39:12;;;;;;;;;;;;;;;;;;5068277;28;19927;-46
2023/05/28 12:41:38;;;;;;;;;;;;;;;;;;5059261;28;19909;-46
2023/05/28 12:44:05;;;;;;;;;;;;;;;;;;5037231;28;20038;-48
2023/05/28 12:46:30;;;;;;;;;;;;;;;;;;5064951;28;20417;-47
2023/05/28 12:48:56;;;;;;;;;;;;;;;;;;5059200;28;19912;-48
2023/05/28 12:51:22;;;;;;;;;;;;;;;;;;5056433;28;19916;-48
2023/05/28 12:53:48;;;;;;;;;;;;;;;;;;5068581;28;19912;-48
2023/05/28 12:56:14;;;;;;;;;;;;;;;;;;5067591;28;20053;-47
2023/05/28 12:58:40;;;;;;;;;;;;;;;;;;5059975;28;19913;-50
2023/05/28 13:01:06;;;;;;;;;;;;;;;;;;5048051;28;19913;-47
2023/05/28 13:03:32;;;;;;;;;;;;;;;;;;5047812;28;19909;-48
2023/05/28 13:05:58;;;;;;;;;;;;;;;;;;5061262;28;19924;-47
2023/05/28 13:08:24;;;;;;;;;;;;;;;;;;5082638;28;19951;-47
2023/05/28 13:10:50;;;;;;;;;;;;;;;;;;5056304;28;19956;-47
2023/05/28 13:13:16;;;;;;;;;;;;;;;;;;5066046;28;19963;-51
2023/05/28 13:15:42;;;;;;;;;;;;;;;;;;5065971;28;19986;-48
2023/05/28 13:18:08;;;;;;;;;;;;;;;;;;5067680;28;19920;-48
2023/05/28 13:20:34;;;;;;;;;;;;;;;;;;5063969;28;19913;-50
2023/05/28 13:23:00;;;;;;;;;;;;;;;;;;5062855;28;20019;-48
2023/05/28 13:25:26;;;;;;;;;;;;;;;;;;5048268;28;20467;-48
2023/05/28 13:27:52;;;;;;;;;;;;;;;;;;5064908;28;19941;-52
2023/05/28 13:30:18;;;;;;;;;;;;;;;;;;5063555;28;19916;-47
2023/05/28 13:32:44;;;;;;;;;;;;;;;;;;5063034;28;19921;-48
2023/05/28 13:35:11;;;;;;;;;;;;;;;;;;5064373;28;20379;-48
2023/05/28 13:37:38;;;;;;;;;;;;;;;;;;5061432;28;19912;-49
2023/05/28 13:40:07;;;;;;;;;;;;;;;;;;5054647;28;19991;-48
2023/05/28 13:42:34;;;;;;;;;;;;;;;;;;5065701;28;19969;-48
2023/05/28 13:45:00;;;;;;;;;;;;;;;;;;5049896;28;19967;-50
2023/05/28 13:47:26;;;;;;;;;;;;;;;;;;5065156;28;20387;-49
2023/05/28 13:49:52;;;;;;;;;;;;;;;;;;5040615;28;19912;-50
2023/05/28 13:52:18;;;;;;;;;;;;;;;;;;5065294;28;20003;-48
2023/05/28 13:54:44;;;;;;;;;;;;;;;;;;5074825;28;19935;-53
2023/05/28 13:57:10;;;;;;;;;;;;;;;;;;5064545;28;19916;-52
2023/05/28 13:59:36;;;;;;;;;;;;;;;;;;5067074;28;19912;-51
2023/05/28 14:02:02;;;;;;;;;;;;;;;;;;5053072;28;20007;-48
2023/05/28 14:04:28;;;;;;;;;;;;;;;;;;5051611;28;19920;-47
2023/05/28 14:06:54;;;;;;;;;;;;;;;;;;5059953;28;19912;-52
2023/05/28 14:09:20;;;;;;;;;;;;;;;;;;5066871;28;20105;-52
2023/05/28 14:11:46;;;;;;;;;;;;;;;;;;5059796;28;20401;-49
2023/05/28 14:14:12;;;;;;;;;;;;;;;;;;5053047;28;20420;-49
2023/05/28 14:16:38;;;;;;;;;;;;;;;;;;5053243;28;19923;-48
2023/05/28 14:19:05;;;;;;;;;;;;;;;;;;5058637;28;20017;-48
2023/05/28 14:21:30;;;;;;;;;;;;;;;;;;5067388;28;19920;-51
2023/05/28 14:23:56;;;;;;;;;;;;;;;;;;5058016;28;20038;-48
2023/05/28 14:26:22;;;;;;;;;;;;;;;;;;5050292;28;19920;-51
2023/05/28 14:28:48;;;;;;;;;;;;;;;;;;5055377;28;19916;-52
2023/05/28 14:31:14;;;;;;;;;;;;;;;;;;5064169;28;19936;-47
2023/05/28 14:33:40;;;;;;;;;;;;;;;;;;5059954;28;19959;-48
2023/05/28 14:36:06;;;;;;;;;;;;;;;;;;5073813;28;19971;-48
2023/05/28 14:38:32;;;;;;;;;;;;;;;;;;5069766;28;19913;-51
2023/05/28 14:40:58;;;;;;;;;;;;;;;;;;5067941;28;19936;-50
2023/05/28 14:43:24;;;;;;;;;;;;;;;;;;5063983;28;19947;-40
2023/05/28 14:45:50;;;;;;;;;;;;;;;;;;5068011;28;19921;-40
2023/05/28 14:48:16;;;;;;;;;;;;;;;;;;5064224;28;19916;-40
2023/05/28 14:50:42;;;;;;;;;;;;;;;;;;5068626;28;19936;-40
2023/05/28 14:53:09;;;;;;;;;;;;;;;;;;5057599;28;19971;-40
2023/05/28 14:55:35;;;;;;;;;;;;;;;;;;5055476;28;19919;-40
2023/05/28 14:58:01;;;;;;;;;;;;;;;;;;5070224;28;19912;-39
2023/05/28 15:00:27;;;;;;;;;;;;;;;;;;5062616;28;19920;-46
2023/05/28 15:02:53;;;;;;;;;;;;;;;;;;5065341;28;19992;-40
2023/05/28 15:05:19;;;;;;;;;;;;;;;;;;5056798;28;19921;-40
2023/05/28 15:07:45;;;;;;;;;;;;;;;;;;5063263;28;19912;-39
2023/05/28 15:10:11;;;;;;;;;;;;;;;;;;5064296;28;20466;-39
2023/05/28 15:12:37;;;;;;;;;;;;;;;;;;5059801;28;19917;-40
2023/05/28 15:15:03;;;;;;;;;;;;;;;;;;5059793;28;19940;-40
2023/05/28 15:17:29;;;;;;;;;;;;;;;;;;5060371;28;19916;-40
2023/05/28 15:19:57;;;;;;;;;;;;;;;;;;5065768;28;19913;-39
2023/05/28 15:22:23;;;;;;;;;;;;;;;;;;5065145;28;19932;-39
2023/05/28 15:24:49;;;;;;;;;;;;;;;;;;5063472;28;19925;-40
2023/05/28 15:27:15;;;;;;;;;;;;;;;;;;5062614;28;19961;-39
2023/05/28 15:29:44;;;;;;;;;;;;;;;;;;5058919;28;19920;-39
2023/05/28 15:32:10;;;;;;;;;;;;;;;;;;5060565;28;20311;-49
2023/05/28 15:34:36;;;;;;;;;;;;;;;;;;5052269;28;19923;-49
2023/05/28 15:37:02;;;;;;;;;;;;;;;;;;5048251;28;19912;-49
2023/05/28 15:39:28;;;;;;;;;;;;;;;;;;5062975;28;19965;-47
2023/05/28 15:41:54;;;;;;;;;;;;;;;;;;5053627;28;19917;-49
2023/05/28 15:44:20;;;;;;;;;;;;;;;;;;5057275;28;19920;-49
2023/05/28 15:46:45;;;;;;;;;;;;;;;;;;5046154;28;19913;-48
2023/05/28 15:49:11;;;;;;;;;;;;;;;;;;5063449;28;19976;-49
2023/05/28 15:51:37;;;;;;;;;;;;;;;;;;5078387;28;20016;-49
2023/05/28 15:54:03;;;;;;;;;;;;;;;;;;5067857;28;19920;-48
2023/05/28 15:56:29;;;;;;;;;;;;;;;;;;5064461;28;20015;-48
2023/05/28 15:58:55;;;;;;;;;;;;;;;;;;5066118;28;19934;-49
2023/05/28 16:01:21;;;;;;;;;;;;;;;;;;5061528;28;19966;-48
2023/05/28 16:03:47;;;;;;;;;;;;;;;;;;5059936;28;20357;-48
2023/05/28 16:06:13;;;;;;;;;;;;;;;;;;5062219;28;19939;-48
2023/05/28 16:08:39;;;;;;;;;;;;;;;;;;5061135;28;20344;-51
2023/05/28 16:11:05;;;;;;;;;;;;;;;;;;5062657;28;20015;-47
2023/05/28 16:13:31;;;;;;;;;;;;;;;;;;5068250;28;19916;-49
2023/05/28 16:15:57;;;;;;;;;;;;;;;;;;5069464;28;19944;-50
2023/05/28 16:18:23;;;;;;;;;;;;;;;;;;5069662;28;19954;-51
2023/05/28 16:20:50;;;;;;;;;;;;;;;;;;5069046;28;19912;-51
2023/05/28 16:23:16;;;;;;;;;;;;;;;;;;5068123;28;19963;-50
2023/05/28 16:25:42;;;;;;;;;;;;;;;;;;5068350;28;20372;-51
2023/05/28 16:28:08;;;;;;;;;;;;;;;;;;5068959;28;19908;-50
2023/05/28 16:30:34;;;;;;;;;;;;;;;;;;5068714;28;19910;-51
2023/05/28 16:32:59;;;;;;;;;;;;;;;;;;5066115;28;19921;-51
2023/05/28 16:35:26;;;;;;;;;;;;;;;;;;5067414;28;19916;-52
2023/05/28 16:37:52;;;;;;;;;;;;;;;;;;5067577;28;20034;-50
2023/05/28 16:40:18;;;;;;;;;;;;;;;;;;5065533;28;20011;-49
2023/05/28 16:42:45;;;;;;;;;;;;;;;;;;5048476;28;19944;-51
2023/05/28 16:45:11;;;;;;;;;;;;;;;;;;5029950;28;19916;-50
2023/05/28 16:47:39;;;;;;;;;;;;;;;;;;5054271;28;19908;-50
2023/05/28 16:50:05;;;;;;;;;;;;;;;;;;5067319;28;19912;-51
2023/05/28 16:52:32;;;;;;;;;;;;;;;;;;5058857;28;19923;-51
2023/05/28 16:54:58;;;;;;;;;;;;;;;;;;5064223;28;19912;-49
2023/05/28 16:57:24;;;;;;;;;;;;;;;;;;5066537;28;19916;-52
2023/05/28 16:59:50;;;;;;;;;;;;;;;;;;5066350;28;20045;-51
2023/05/28 17:02:17;;;;;;;;;;;;;;;;;;5063186;28;20400;-48
2023/05/28 17:04:43;;;;;;;;;;;;;;;;;;5061953;28;19913;-52
2023/05/28 17:07:09;;;;;;;;;;;;;;;;;;5056545;28;20015;-51
2023/05/28 17:09:35;;;;;;;;;;;;;;;;;;5061864;28;20011;-53
2023/05/28 17:12:01;;;;;;;;;;;;;;;;;;5066049;28;20016;-52
2023/05/28 17:14:27;;;;;;;;;;;;;;;;;;5064992;28;20003;-52
2023/05/28 17:16:53;;;;;;;;;;;;;;;;;;5048715;28;19912;-48
2023/05/28 17:19:19;;;;;;;;;;;;;;;;;;5043396;28;19912;-52
2023/05/28 17:21:45;;;;;;;;;;;;;;;;;;5060064;28;19946;-52
2023/05/28 17:24:11;;;;;;;;;;;;;;;;;;5062337;28;19921;-49
2023/05/28 17:26:37;;;;;;;;;;;;;;;;;;5049841;28;20343;-48
2023/05/28 17:29:03;;;;;;;;;;;;;;;;;;5038821;28;20303;-49
2023/05/28 17:31:29;;;;;;;;;;;;;;;;;;5074389;28;19919;-40
2023/05/28 17:33:55;;;;;;;;;;;;;;;;;;5052857;28;20440;-40
2023/05/28 17:36:21;;;;;;;;;;;;;;;;;;5031640;28;20363;-40
2023/05/28 17:38:47;;;;;;;;;;;;;;;;;;5046049;28;19913;-40
2023/05/28 17:41:12;;;;;;;;;;;;;;;;;;5047084;28;19909;-39
2023/05/28 17:43:38;;;;;;;;;;;;;;;;;;5057252;28;19912;-39
2023/05/28 17:46:05;;;;;;;;;;;;;;;;;;5055435;28;19961;-49
2023/05/28 17:48:31;;;;;;;;;;;;;;;;;;5056334;28;19939;-48
2023/05/28 17:50:57;;;;;;;;;;;;;;;;;;5037800;28;19917;-52
2023/05/28 17:53:25;;;;;;;;;;;;;;;;;;5071011;28;19916;-48
2023/05/28 17:55:54;;;;;;;;;;;;;;;;;;5086903;28;19999;-53
2023/05/28 17:58:20;;;;;;;;;;;;;;;;;;5065499;28;20303;-50
2023/05/28 18:00:46;;;;;;;;;;;;;;;;;;5063688;28;19954;-49
2023/05/28 18:03:12;;;;;;;;;;;;;;;;;;5053510;28;19943;-49
2023/05/28 18:05:38;;;;;;;;;;;;;;;;;;5054883;28;19959;-48
2023/05/28 18:08:04;;;;;;;;;;;;;;;;;;5061387;28;19963;-48
2023/05/28 18:10:30;;;;;;;;;;;;;;;;;;5054220;28;20338;-50
2023/05/28 18:12:56;;;;;;;;;;;;;;;;;;5058243;28;19916;-51
2023/05/28 18:15:23;;;;;;;;;;;;;;;;;;5060599;28;19923;-49
2023/05/28 18:17:50;;;;;;;;;;;;;;;;;;5032020;28;19917;-51
2023/05/28 18:20:17;;;;;;;;;;;;;;;;;;5055937;28;19913;-39
2023/05/28 18:22:43;;;;;;;;;;;;;;;;;;5063298;28;19913;-39
2023/05/28 18:25:09;;;;;;;;;;;;;;;;;;5062509;28;19929;-39
2023/05/28 18:27:35;;;;;;;;;;;;;;;;;;5062354;28;19916;-40
2023/05/28 18:30:03;;;;;;;;;;;;;;;;;;5064406;28;19961;-39
2023/05/28 18:32:28;;;;;;;;;;;;;;;;;;5063145;28;19921;-40
2023/05/28 18:34:55;;;;;;;;;;;;;;;;;;5063200;28;20410;-40
2023/05/28 18:37:21;;;;;;;;;;;;;;;;;;5065073;28;19931;-40
2023/05/28 18:39:47;;;;;;;;;;;;;;;;;;5059860;28;19912;-39
2023/05/28 18:42:13;;;;;;;;;;;;;;;;;;5056893;28;19912;-50
2023/05/28 18:44:40;;;;;;;;;;;;;;;;;;5063681;28;20419;-49
2023/05/28 18:47:06;;;;;;;;;;;;;;;;;;5042565;28;19930;-50
2023/05/28 18:49:34;;;;;;;;;;;;;;;;;;5064542;28;20006;-50
2023/05/28 18:52:02;;;;;;;;;;;;;;;;;;5050993;28;20335;-49
2023/05/28 18:54:28;;;;;;;;;;;;;;;;;;5045782;28;19913;-51
2023/05/28 18:56:54;;;;;;;;;;;;;;;;;;5059687;28;19916;-50
2023/05/28 18:59:20;;;;;;;;;;;;;;;;;;5057265;28;20339;-49
2023/05/28 19:01:46;;;;;;;;;;;;;;;;;;5057783;28;19928;-49
2023/05/28 19:04:13;;;;;;;;;;;;;;;;;;5061908;28;19920;-49
2023/05/28 19:06:39;;;;;;;;;;;;;;;;;;5062793;28;19987;-51
2023/05/28 19:09:05;;;;;;;;;;;;;;;;;;5062735;28;19920;-47
2023/05/28 19:11:31;;;;;;;;;;;;;;;;;;5061681;28;19920;-50
2023/05/28 19:13:57;;;;;;;;;;;;;;;;;;5064993;28;19923;-50
2023/05/28 19:16:23;;;;;;;;;;;;;;;;;;5063933;28;19913;-49
2023/05/28 19:18:49;;;;;;;;;;;;;;;;;;5063955;28;19962;-51
2023/05/28 19:21:15;;;;;;;;;;;;;;;;;;5047332;28;19909;-48
2023/05/28 19:23:42;;;;;;;;;;;;;;;;;;5066141;28;20015;-49
2023/05/28 19:26:08;;;;;;;;;;;;;;;;;;5069359;28;20481;-48
2023/05/28 19:28:36;;;;;;;;;;;;;;;;;;5069320;28;19947;-49
2023/05/28 19:31:02;;;;;;;;;;;;;;;;;;5068291;28;20359;-51
2023/05/28 19:33:27;;;;;;;;;;;;;;;;;;5067429;28;19970;-48
2023/05/28 19:35:54;;;;;;;;;;;;;;;;;;5069266;28;19940;-49
2023/05/28 19:38:20;;;;;;;;;;;;;;;;;;5068214;28;20302;-49
2023/05/28 19:40:45;;;;;;;;;;;;;;;;;;5067865;28;20031;-49
2023/05/28 19:43:11;;;;;;;;;;;;;;;;;;5067990;28;19912;-49
2023/05/28 19:45:37;;;;;;;;;;;;;;;;;;5067982;28;19938;-48
2023/05/28 19:48:03;;;;;;;;;;;;;;;;;;5068251;28;19917;-48
2023/05/28 19:50:30;;;;;;;;;;;;;;;;;;5063852;28;19928;-50
2023/05/28 19:52:56;;;;;;;;;;;;;;;;;;5066355;28;20024;-49
2023/05/28 19:55:22;;;;;;;;;;;;;;;;;;5039829;28;20328;-49
2023/05/28 19:57:48;;;;;;;;;;;;;;;;;;5048351;28;19912;-50
2023/05/28 20:00:14;;;;;;;;;;;;;;;;;;5065994;28;19965;-47
2023/05/28 20:02:40;;;;;;;;;;;;;;;;;;5050150;28;20748;-48
2023/05/28 20:05:06;;;;;;;;;;;;;;;;;;5067712;28;19913;-50
2023/05/28 20:07:32;;;;;;;;;;;;;;;;;;5068767;28;20283;-51
2023/05/28 20:09:58;;;;;;;;;;;;;;;;;;5067469;28;19916;-49
2023/05/28 20:12:24;;;;;;;;;;;;;;;;;;5066771;28;19924;-51
2023/05/28 20:14:50;;;;;;;;;;;;;;;;;;5064221;28;20015;-47
2023/05/28 20:17:16;;;;;;;;;;;;;;;;;;5072278;28;20389;-50
2023/05/28 20:19:45;;;;;;;;;;;;;;;;;;5066175;28;19912;-52
2023/05/28 20:22:11;;;;;;;;;;;;;;;;;;5067433;28;20003;-51
2023/05/28 20:24:38;;;;;;;;;;;;;;;;;;5068621;28;20008;-50
2023/05/28 20:27:05;;;;;;;;;;;;;;;;;;5064706;28;19923;-49
2023/05/28 20:29:31;;;;;;;;;;;;;;;;;;5066754;28;19952;-51
2023/05/28 20:31:57;;;;;;;;;;;;;;;;;;5055307;28;19970;-49
2023/05/28 20:34:23;;;;;;;;;;;;;;;;;;5049287;28;19909;-51
2023/05/28 20:36:49;;;;;;;;;;;;;;;;;;5065830;28;19916;-51
2023/05/28 20:39:15;;;;;;;;;;;;;;;;;;5059936;28;19919;-49
2023/05/28 20:41:43;;;;;;;;;;;;;;;;;;5062129;28;19929;-50
2023/05/28 20:44:10;;;;;;;;;;;;;;;;;;5063404;28;20607;-48
2023/05/28 20:46:38;;;;;;;;;;;;;;;;;;5066404;28;19913;-51
2023/05/28 20:49:04;;;;;;;;;;;;;;;;;;5063530;28;19923;-49
2023/05/28 20:51:31;;;;;;;;;;;;;;;;;;5064799;28;19913;-50
2023/05/28 20:54:04;;;;;;;;;;;;;;;;;;5063087;28;21905;-51
2023/05/28 20:56:31;;;;;;;;;;;;;;;;;;5063901;28;19916;-48
2023/05/28 20:58:58;;;;;;;;;;;;;;;;;;5064008;28;19948;-52
2023/05/28 21:01:24;;;;;;;;;;;;;;;;;;5047492;28;19912;-52
2023/05/28 21:03:50;;;;;;;;;;;;;;;;;;5055389;28;19927;-49
2023/05/28 21:06:16;;;;;;;;;;;;;;;;;;5055386;28;19919;-51
2023/05/28 21:08:42;;;;;;;;;;;;;;;;;;5061131;28;19916;-49
2023/05/28 21:11:08;;;;;;;;;;;;;;;;;;5066720;28;19928;-50
2023/05/28 21:13:34;;;;;;;;;;;;;;;;;;5066894;28;19912;-48
2023/05/28 21:16:00;;;;;;;;;;;;;;;;;;5064863;28;19956;-48
2023/05/28 21:18:26;;;;;;;;;;;;;;;;;;5067857;28;19952;-50
2023/05/28 21:20:54;;;;;;;;;;;;;;;;;;5066804;28;19985;-47
2023/05/28 21:23:20;;;;;;;;;;;;;;;;;;5067355;28;19908;-49
2023/05/28 21:25:46;;;;;;;;;;;;;;;;;;5066320;28;19920;-50
2023/05/28 21:28:12;;;;;;;;;;;;;;;;;;5066918;28;19939;-49
2023/05/28 21:30:37;;;;;;;;;;;;;;;;;;5067314;28;19928;-50
2023/05/28 21:33:03;;;;;;;;;;;;;;;;;;5065961;28;19917;-48
2023/05/28 21:35:30;;;;;;;;;;;;;;;;;;5066301;28;19981;-51
2023/05/28 21:37:56;;;;;;;;;;;;;;;;;;5067329;28;19915;-50
2023/05/28 21:40:22;;;;;;;;;;;;;;;;;;5066978;28;19912;-50
2023/05/28 21:42:48;;;;;;;;;;;;;;;;;;5066437;28;19981;-50
2023/05/28 21:45:14;;;;;;;;;;;;;;;;;;5066413;28;19912;-49
2023/05/28 21:47:40;;;;;;;;;;;;;;;;;;5066835;28;19917;-50